createdAt,value
2018-05-13T00:01:58.472Z,12.26
2018-05-13T00:04:30.917Z,12.22
2018-05-13T00:07:03.389Z,12.24
2018-05-13T00:09:35.629Z,12.26
2018-05-13T00:12:08.159Z,12.20
2018-05-13T00:14:40.603Z,12.23
2018-05-13T00:17:12.869Z,12.22
2018-05-13T00:19:45.262Z,12.17
2018-05-13T00:22:17.671Z,12.19
2018-05-13T00:24:50.131Z,12.16
2018-05-13T00:27:22.803Z,12.08
2018-05-13T00:29:55.379Z,12.15
2018-05-13T00:32:27.643Z,11.94
2018-05-13T00:35:00.084Z,11.97
2018-05-13T00:37:32.564Z,11.98
2018-05-13T00:40:04.867Z,12.01
2018-05-13T00:42:37.293Z,12.05
2018-05-13T00:45:09.737Z,12.09
2018-05-13T00:47:42.072Z,12.02
2018-05-13T00:50:14.507Z,12.05
2018-05-13T00:52:46.965Z,12.12
2018-05-13T00:55:19.409Z,12.16
2018-05-13T00:57:51.789Z,12.11
2018-05-13T01:00:24.256Z,12.04
2018-05-13T01:02:56.790Z,12.04
2018-05-13T01:05:29.160Z,12.01
2018-05-13T01:08:01.475Z,12.05
2018-05-13T01:10:33.720Z,11.98
2018-05-13T01:13:06.067Z,11.95
2018-05-13T01:15:38.409Z,12.00
2018-05-13T01:18:10.880Z,12.01
2018-05-13T01:20:43.285Z,12.00
2018-05-13T01:23:15.750Z,11.92
2018-05-13T01:25:48.332Z,12.04
2018-05-13T01:28:20.790Z,11.97
2018-05-13T01:30:58.800Z,12.04
2018-05-13T01:33:31.221Z,12.05
2018-05-13T01:36:03.464Z,11.91
2018-05-13T01:38:35.750Z,11.89
2018-05-13T01:41:08.196Z,11.77
2018-05-13T01:43:40.731Z,11.82
2018-05-13T01:46:12.955Z,11.90
2018-05-13T01:48:45.336Z,11.99
2018-05-13T01:51:17.852Z,11.94
2018-05-13T01:53:50.196Z,11.95
2018-05-13T01:56:22.584Z,11.92
2018-05-13T01:58:54.980Z,11.89
2018-05-13T02:01:27.227Z,11.84
2018-05-13T02:03:59.551Z,11.82
2018-05-13T02:06:32.075Z,11.83
2018-05-13T02:09:04.624Z,11.73
2018-05-13T02:11:37.085Z,11.71
2018-05-13T02:14:09.673Z,11.67
2018-05-13T02:16:42.183Z,11.71
2018-05-13T02:19:14.655Z,11.75
2018-05-13T02:21:47.107Z,11.81
2018-05-13T02:24:19.597Z,11.95
2018-05-13T02:26:51.831Z,11.85
2018-05-13T02:29:24.256Z,11.89
2018-05-13T02:31:56.651Z,11.94
2018-05-13T02:34:29.133Z,11.95
2018-05-13T02:37:01.567Z,11.94
2018-05-13T02:39:34.135Z,11.82
2018-05-13T02:42:06.555Z,11.73
2018-05-13T02:44:39.147Z,11.80
2018-05-13T02:47:11.461Z,11.84
2018-05-13T02:49:43.939Z,11.75
2018-05-13T02:52:16.332Z,11.66
2018-05-13T02:54:48.767Z,11.53
2018-05-13T02:57:20.980Z,11.43
2018-05-13T02:59:53.680Z,11.19
2018-05-13T03:02:25.988Z,11.09
2018-05-13T03:04:58.466Z,11.14
2018-05-13T03:07:30.959Z,11.15
2018-05-13T03:10:03.740Z,11.17
2018-05-13T03:12:36.136Z,11.27
2018-05-13T03:15:08.471Z,11.44
2018-05-13T03:17:40.903Z,11.44
2018-05-13T03:20:13.388Z,11.48
2018-05-13T03:22:45.700Z,11.57
2018-05-13T03:25:18.058Z,11.63
2018-05-13T03:27:50.544Z,11.60
2018-05-13T03:30:23.255Z,11.60
2018-05-13T03:32:55.718Z,11.48
2018-05-13T03:35:28.313Z,11.45
2018-05-13T03:38:00.755Z,11.48
2018-05-13T03:40:33.155Z,11.43
2018-05-13T03:43:05.383Z,11.34
2018-05-13T03:45:37.968Z,11.31
2018-05-13T03:48:10.356Z,11.48
2018-05-13T03:50:42.769Z,11.61
2018-05-13T03:53:15.049Z,11.63
2018-05-13T03:55:47.348Z,11.65
2018-05-13T03:58:19.848Z,11.69
2018-05-13T04:00:52.403Z,11.72
2018-05-13T04:03:24.902Z,11.87
2018-05-13T04:05:57.284Z,11.90
2018-05-13T04:08:50.275Z,12.03
2018-05-13T04:11:34.639Z,12.09
2018-05-13T04:14:18.991Z,12.18
2018-05-13T04:16:51.404Z,12.21
2018-05-13T04:19:23.809Z,12.27
2018-05-13T04:21:56.385Z,12.26
2018-05-13T04:24:28.853Z,12.32
2018-05-13T04:27:01.365Z,12.34
2018-05-13T04:29:33.767Z,12.37
2018-05-13T04:32:06.254Z,12.36
2018-05-13T04:34:38.655Z,12.37
2018-05-13T04:37:10.902Z,12.54
2018-05-13T04:39:43.298Z,12.58
2018-05-13T04:42:15.660Z,12.65
2018-05-13T04:44:48.172Z,12.67
2018-05-13T04:47:20.587Z,12.66
2018-05-13T04:49:52.912Z,12.78
2018-05-13T04:52:25.264Z,12.98
2018-05-13T04:54:57.596Z,13.01
2018-05-13T04:57:29.976Z,12.98
2018-05-13T05:00:02.557Z,12.92
2018-05-13T05:02:35.092Z,13.11
2018-05-13T05:05:07.328Z,13.01
2018-05-13T05:07:39.686Z,12.79
2018-05-13T05:10:11.927Z,12.88
2018-05-13T05:12:44.335Z,13.02
2018-05-13T05:15:16.681Z,12.87
2018-05-13T05:17:49.106Z,13.09
2018-05-13T05:20:21.588Z,13.24
2018-05-13T05:22:54.093Z,13.50
2018-05-13T05:25:26.584Z,13.79
2018-05-13T05:27:58.936Z,13.91
2018-05-13T05:30:31.242Z,13.98
2018-05-13T05:33:04.000Z,14.00
2018-05-13T05:35:36.387Z,13.85
2018-05-13T05:38:08.679Z,14.11
2018-05-13T05:40:41.186Z,14.23
2018-05-13T05:43:13.600Z,14.44
2018-05-13T05:45:46.071Z,14.34
2018-05-13T05:48:18.608Z,14.56
2018-05-13T05:53:47.043Z,14.58
2018-05-13T05:56:19.447Z,14.38
2018-05-13T05:58:51.868Z,14.59
2018-05-13T06:01:24.279Z,14.25
2018-05-13T06:03:56.875Z,14.41
2018-05-13T06:06:29.374Z,14.82
2018-05-13T06:09:01.838Z,15.26
2018-05-13T06:11:34.363Z,15.38
2018-05-13T06:14:06.700Z,15.56
2018-05-13T06:16:38.977Z,15.51
2018-05-13T06:19:11.372Z,15.32
2018-05-13T06:21:43.802Z,15.61
2018-05-13T06:24:16.298Z,16.17
2018-05-13T06:26:48.612Z,16.67
2018-05-13T06:29:20.965Z,17.21
2018-05-13T06:31:53.489Z,17.09
2018-05-13T06:34:25.840Z,17.21
2018-05-13T06:36:59.292Z,17.36
2018-05-13T06:39:31.758Z,18.11
2018-05-13T06:42:04.172Z,18.14
2018-05-13T06:44:36.625Z,18.37
2018-05-13T06:47:09.100Z,18.44
2018-05-13T06:49:41.648Z,18.65
2018-05-13T06:52:13.948Z,18.91
2018-05-13T06:54:46.235Z,18.70
2018-05-13T06:57:18.738Z,18.98
2018-05-13T06:59:51.183Z,19.20
2018-05-13T07:02:23.608Z,19.32
2018-05-13T07:04:55.899Z,19.55
2018-05-13T07:07:28.295Z,19.05
2018-05-13T07:10:00.649Z,19.06
2018-05-13T07:12:33.149Z,18.73
2018-05-13T07:15:05.433Z,19.33
2018-05-13T07:17:37.925Z,19.69
2018-05-13T07:20:12.160Z,19.39
2018-05-13T07:22:44.719Z,19.51
2018-05-13T07:25:17.214Z,19.53
2018-05-13T07:27:49.471Z,19.65
2018-05-13T07:30:21.876Z,19.63
2018-05-13T07:32:54.332Z,19.14
2018-05-13T07:35:26.809Z,19.54
2018-05-13T07:37:59.296Z,19.05
2018-05-13T07:40:31.759Z,18.05
2018-05-13T07:43:04.236Z,17.76
2018-05-13T07:45:36.726Z,17.79
2018-05-13T07:48:08.946Z,17.60
2018-05-13T07:50:41.467Z,18.53
2018-05-13T07:53:13.711Z,18.93
2018-05-13T07:55:45.967Z,19.20
2018-05-13T07:58:18.410Z,19.22
2018-05-13T08:00:50.755Z,19.24
2018-05-13T08:03:23.263Z,19.88
2018-05-13T08:05:55.744Z,20.10
2018-05-13T08:08:28.834Z,20.29
2018-05-13T08:11:01.476Z,20.31
2018-05-13T08:13:34.001Z,20.20
2018-05-13T08:16:06.410Z,20.37
2018-05-13T08:18:38.881Z,20.79
2018-05-13T08:21:11.450Z,21.34
2018-05-13T08:23:43.960Z,21.51
2018-05-13T08:26:16.459Z,21.72
2018-05-13T08:28:48.846Z,21.54
2018-05-13T08:31:21.246Z,20.45
2018-05-13T08:33:53.653Z,20.37
2018-05-13T08:36:26.037Z,20.35
2018-05-13T08:38:58.537Z,21.00
2018-05-13T08:41:31.044Z,21.04
2018-05-13T08:44:03.354Z,20.80
2018-05-13T08:46:35.716Z,20.54
2018-05-13T08:49:08.140Z,20.78
2018-05-13T08:51:40.763Z,21.17
2018-05-13T08:54:13.137Z,20.89
2018-05-13T08:56:45.493Z,21.08
2018-05-13T08:59:17.924Z,21.28
2018-05-13T09:01:50.373Z,22.14
2018-05-13T09:04:22.772Z,22.11
2018-05-13T09:06:55.343Z,22.20
2018-05-13T09:09:27.751Z,21.96
2018-05-13T09:12:00.041Z,22.14
2018-05-13T09:14:32.414Z,22.03
2018-05-13T09:17:04.840Z,22.78
2018-05-13T09:19:37.215Z,23.51
2018-05-13T09:22:10.712Z,23.09
2018-05-13T09:24:43.166Z,23.35
2018-05-13T09:27:15.693Z,23.19
2018-05-13T09:29:48.977Z,23.69
2018-05-13T09:32:21.429Z,23.57
2018-05-13T09:34:53.848Z,23.52
2018-05-13T09:37:26.331Z,23.00
2018-05-13T09:39:58.606Z,22.71
2018-05-13T09:42:31.037Z,21.36
2018-05-13T09:45:03.546Z,22.06
2018-05-13T09:47:36.035Z,22.31
2018-05-13T09:50:08.503Z,22.70
2018-05-13T09:52:40.847Z,22.62
2018-05-13T09:55:13.080Z,22.08
2018-05-13T09:57:45.524Z,22.57
2018-05-13T10:00:17.847Z,22.67
2018-05-13T10:02:50.334Z,21.80
2018-05-13T10:05:22.817Z,21.53
2018-05-13T10:07:55.541Z,21.48
2018-05-13T10:10:28.023Z,21.61
2018-05-13T10:13:00.517Z,21.69
2018-05-13T10:15:32.962Z,22.28
2018-05-13T10:18:05.351Z,22.49
2018-05-13T10:20:37.797Z,22.83
2018-05-13T10:23:11.995Z,22.69
2018-05-13T10:25:44.415Z,22.76
2018-05-13T10:28:16.654Z,23.04
2018-05-13T10:30:48.982Z,23.19
2018-05-13T10:33:21.554Z,23.12
2018-05-13T10:35:53.948Z,23.42
2018-05-13T10:38:26.342Z,23.72
2018-05-13T10:41:00.704Z,24.13
2018-05-13T10:43:33.048Z,23.99
2018-05-13T10:46:05.503Z,24.15
2018-05-13T10:48:37.797Z,24.28
2018-05-13T10:51:10.267Z,24.31
2018-05-13T10:53:43.241Z,23.92
2018-05-13T10:56:15.661Z,23.99
2018-05-13T10:58:48.035Z,22.95
2018-05-13T11:01:20.488Z,22.43
2018-05-13T11:03:52.758Z,22.95
2018-05-13T11:06:25.347Z,23.13
2018-05-13T11:08:57.844Z,23.14
2018-05-13T11:11:30.184Z,23.16
2018-05-13T11:14:02.732Z,22.86
2018-05-13T11:16:35.157Z,22.40
2018-05-13T11:19:07.740Z,22.12
2018-05-13T11:21:40.048Z,21.97
2018-05-13T11:24:12.963Z,21.90
2018-05-13T11:26:45.339Z,21.72
2018-05-13T11:29:17.818Z,21.20
2018-05-13T11:31:50.017Z,20.58
2018-05-13T11:34:22.335Z,20.01
2018-05-13T11:36:54.833Z,19.92
2018-05-13T11:39:27.240Z,19.66
2018-05-13T11:41:59.780Z,19.72
2018-05-13T11:44:32.317Z,19.20
2018-05-13T11:46:58.623Z,18.59
2018-05-13T11:49:24.929Z,17.97
2018-05-13T11:51:51.278Z,17.24
2018-05-13T11:54:17.601Z,17.15
2018-05-13T11:56:43.943Z,16.81
2018-05-13T11:59:10.391Z,16.61
2018-05-13T12:01:36.706Z,16.62
2018-05-13T12:04:03.120Z,16.46
2018-05-13T12:06:29.504Z,16.65
2018-05-13T12:08:55.854Z,16.86
2018-05-13T12:11:27.213Z,17.07
2018-05-13T12:13:53.661Z,17.39
2018-05-13T12:16:20.001Z,17.46
2018-05-13T12:18:46.318Z,18.05
2018-05-13T12:21:12.810Z,18.51
2018-05-13T12:23:39.218Z,19.22
2018-05-13T12:26:05.511Z,19.72
2018-05-13T12:28:31.868Z,20.22
2018-05-13T12:30:58.235Z,20.51
2018-05-13T12:33:24.624Z,20.89
2018-05-13T12:35:50.989Z,20.54
2018-05-13T12:38:17.445Z,21.16
2018-05-13T12:40:43.786Z,20.88
2018-05-13T12:43:16.822Z,21.21
2018-05-13T12:45:43.129Z,20.74
2018-05-13T12:48:09.461Z,20.44
2018-05-13T12:50:35.831Z,19.79
2018-05-13T12:53:02.140Z,19.35
2018-05-13T12:55:28.486Z,18.74
2018-05-13T12:57:54.851Z,18.82
2018-05-13T13:00:21.170Z,19.22
2018-05-13T13:02:47.486Z,19.54
2018-05-13T13:05:13.906Z,19.56
2018-05-13T13:07:40.255Z,19.31
2018-05-13T13:10:06.555Z,19.37
2018-05-13T13:12:32.908Z,19.31
2018-05-13T13:14:59.209Z,19.55
2018-05-13T13:17:25.526Z,19.53
2018-05-13T13:19:51.879Z,19.64
2018-05-13T13:22:18.230Z,19.78
2018-05-13T13:24:45.144Z,20.18
2018-05-13T13:27:11.755Z,20.44
2018-05-13T13:29:38.094Z,20.85
2018-05-13T13:32:04.403Z,21.14
2018-05-13T13:34:30.755Z,21.13
2018-05-13T13:36:57.065Z,20.81
2018-05-13T13:39:23.376Z,21.12
2018-05-13T13:41:49.803Z,21.03
2018-05-13T13:44:16.220Z,20.99
2018-05-13T13:46:42.555Z,20.84
2018-05-13T13:49:08.945Z,20.67
2018-05-13T13:51:35.295Z,20.62
2018-05-13T13:54:01.616Z,20.56
2018-05-13T13:56:28.020Z,20.51
2018-05-13T13:58:54.332Z,20.28
2018-05-13T14:01:20.624Z,20.23
2018-05-13T14:03:46.989Z,20.54
2018-05-13T14:06:13.289Z,20.93
2018-05-13T14:08:39.596Z,22.10
2018-05-13T14:11:06.317Z,22.68
2018-05-13T14:13:32.630Z,23.99
2018-05-13T14:15:58.958Z,25.04
2018-05-13T14:18:25.315Z,25.53
2018-05-13T14:20:51.607Z,25.53
2018-05-13T14:23:17.922Z,25.45
2018-05-13T14:25:44.299Z,25.48
2018-05-13T14:28:10.612Z,24.48
2018-05-13T14:30:36.927Z,23.23
2018-05-13T14:33:04.304Z,22.42
2018-05-13T14:35:30.564Z,21.86
2018-05-13T14:37:56.964Z,21.71
2018-05-13T14:40:23.250Z,20.64
2018-05-13T14:42:49.539Z,20.35
2018-05-13T14:45:16.072Z,20.09
2018-05-13T14:47:42.346Z,19.44
2018-05-13T14:50:08.672Z,19.04
2018-05-13T14:52:34.982Z,18.90
2018-05-13T14:55:01.420Z,18.57
2018-05-13T14:57:27.752Z,18.56
2018-05-13T14:59:54.070Z,18.61
2018-05-13T15:02:20.424Z,18.51
2018-05-13T15:04:46.774Z,18.21
2018-05-13T15:07:25.040Z,18.17
2018-05-13T15:09:52.465Z,18.14
2018-05-13T15:12:18.763Z,17.95
2018-05-13T15:14:45.220Z,17.83
2018-05-13T15:17:11.564Z,17.55
2018-05-13T15:19:37.872Z,17.57
2018-05-13T15:22:04.314Z,17.21
2018-05-13T15:27:11.836Z,16.88
2018-05-13T15:29:38.166Z,16.34
2018-05-13T15:32:04.470Z,16.41
2018-05-13T15:34:30.874Z,16.21
2018-05-13T15:36:57.197Z,16.07
2018-05-13T15:39:23.492Z,16.05
2018-05-13T15:41:49.820Z,16.16
2018-05-13T15:44:16.180Z,16.21
2018-05-13T15:46:42.592Z,16.10
2018-05-13T15:49:09.127Z,16.11
2018-05-13T15:51:35.351Z,16.00
2018-05-13T15:54:01.678Z,15.95
2018-05-13T15:56:28.084Z,15.72
2018-05-13T15:58:54.396Z,15.66
2018-05-13T16:01:20.716Z,15.59
2018-05-13T16:03:47.084Z,15.57
2018-05-13T16:06:13.432Z,15.46
2018-05-13T16:08:39.761Z,15.44
2018-05-13T16:11:06.162Z,15.35
2018-05-13T16:13:32.487Z,15.30
2018-05-13T16:15:58.810Z,15.25
2018-05-13T16:18:25.194Z,15.17
2018-05-13T16:20:51.516Z,15.13
2018-05-13T16:23:17.827Z,15.19
2018-05-13T16:25:44.195Z,15.17
2018-05-13T16:28:10.545Z,15.14
2018-05-13T16:30:36.869Z,15.23
2018-05-13T16:33:03.239Z,15.20
2018-05-13T16:35:29.549Z,15.23
2018-05-13T16:37:55.852Z,15.39
2018-05-13T16:40:25.661Z,15.34
2018-05-13T16:42:51.993Z,15.46
2018-05-13T16:45:18.314Z,15.49
2018-05-13T16:47:47.718Z,15.37
2018-05-13T16:50:14.035Z,15.20
2018-05-13T16:52:40.366Z,15.19
2018-05-13T16:55:06.724Z,15.10
2018-05-13T16:57:33.054Z,15.09
2018-05-13T16:59:59.368Z,15.04
2018-05-13T17:02:25.908Z,15.06
2018-05-13T17:04:52.189Z,15.06
2018-05-13T17:07:18.531Z,15.06
2018-05-13T17:09:44.867Z,14.99
2018-05-13T17:12:11.168Z,14.84
2018-05-13T17:14:37.490Z,14.90
2018-05-13T17:17:03.862Z,14.81
2018-05-13T17:19:30.185Z,14.87
2018-05-13T17:21:56.547Z,14.83
2018-05-13T17:24:22.958Z,14.83
2018-05-13T17:26:49.272Z,14.83
2018-05-13T17:29:15.621Z,14.83
2018-05-13T17:31:41.975Z,14.73
2018-05-13T17:34:08.298Z,14.76
2018-05-13T17:36:34.597Z,14.65
2018-05-13T17:39:00.955Z,14.64
2018-05-13T17:41:27.291Z,14.64
2018-05-13T17:43:53.579Z,14.64
2018-05-13T17:46:20.058Z,14.61
2018-05-13T17:48:46.455Z,14.60
2018-05-13T17:51:12.764Z,14.66
2018-05-13T17:53:39.149Z,14.64
2018-05-13T17:56:05.500Z,14.63
2018-05-13T17:58:31.864Z,14.61
2018-05-13T18:00:58.294Z,14.58
2018-05-13T18:03:24.681Z,14.51
2018-05-13T18:05:50.981Z,14.48
2018-05-13T18:08:17.440Z,14.51
2018-05-13T18:10:43.728Z,14.52
2018-05-13T18:13:10.063Z,14.53
2018-05-13T18:15:36.439Z,14.52
2018-05-13T18:18:02.745Z,14.54
2018-05-13T18:20:29.071Z,14.52
2018-05-13T18:22:55.447Z,14.39
2018-05-13T18:25:21.776Z,14.35
2018-05-13T18:27:48.095Z,14.38
2018-05-13T18:30:14.504Z,14.36
2018-05-13T18:32:40.852Z,14.23
2018-05-13T18:35:07.176Z,14.18
2018-05-13T18:37:33.546Z,14.16
2018-05-13T18:39:59.874Z,14.14
2018-05-13T18:42:26.192Z,14.07
2018-05-13T18:44:52.567Z,14.15
2018-05-13T18:47:18.872Z,14.19
2018-05-13T18:49:45.280Z,14.13
2018-05-13T18:52:11.659Z,14.23
2018-05-13T18:54:38.047Z,14.25
2018-05-13T18:57:04.271Z,14.23
2018-05-13T18:59:30.614Z,14.21
2018-05-13T19:01:56.941Z,14.22
2018-05-13T19:04:23.306Z,14.35
2018-05-13T19:06:49.658Z,14.29
2018-05-13T19:09:15.983Z,14.25
2018-05-13T19:11:42.400Z,14.31
2018-05-13T19:14:08.817Z,14.34
2018-05-13T19:16:35.152Z,14.22
2018-05-13T19:19:01.486Z,14.29
2018-05-13T19:21:27.855Z,14.28
2018-05-13T19:23:54.176Z,14.20
2018-05-13T19:26:20.505Z,14.27
2018-05-13T19:28:46.920Z,14.26
2018-05-13T19:31:13.230Z,14.38
2018-05-13T19:33:39.522Z,14.39
2018-05-13T19:36:05.924Z,14.24
2018-05-13T19:38:32.292Z,14.23
2018-05-13T19:40:58.589Z,14.22
2018-05-13T19:43:24.998Z,14.17
2018-05-13T19:45:51.293Z,14.20
2018-05-13T19:48:17.608Z,14.05
2018-05-13T19:50:44.068Z,14.00
2018-05-13T19:53:10.398Z,13.99
2018-05-13T19:55:36.731Z,13.98
2018-05-13T19:58:03.759Z,13.99
2018-05-13T20:00:30.723Z,13.97
2018-05-13T20:02:57.127Z,13.91
2018-05-13T20:05:23.639Z,13.82
2018-05-13T20:07:49.976Z,13.89
2018-05-13T20:10:22.479Z,13.81
2018-05-13T20:12:57.076Z,13.78
2018-05-13T20:15:29.829Z,13.76
2018-05-13T20:18:02.995Z,13.73
2018-05-13T20:20:35.308Z,13.68
2018-05-13T20:23:19.991Z,13.71
2018-05-13T20:25:52.466Z,13.70
2018-05-13T20:28:25.864Z,13.68
2018-05-13T20:30:59.749Z,13.63
2018-05-13T20:33:32.160Z,13.60
2018-05-13T20:36:04.693Z,13.61
2018-05-13T20:38:37.036Z,13.52
2018-05-13T20:41:10.057Z,13.41
2018-05-13T20:43:42.408Z,13.58
2018-05-13T20:46:14.694Z,13.57
2018-05-13T20:48:50.289Z,13.61
2018-05-13T20:51:22.883Z,13.64
2018-05-13T20:53:55.429Z,13.58
2018-05-13T20:56:27.989Z,13.60
2018-05-13T21:01:38.500Z,13.50
2018-05-13T21:04:10.906Z,13.49
2018-05-13T21:06:43.371Z,13.46
2018-05-13T21:09:15.921Z,13.57
2018-05-13T21:11:48.418Z,13.53
2018-05-13T21:14:20.780Z,13.49
2018-05-13T21:16:53.151Z,13.53
2018-05-13T21:19:25.407Z,13.59
2018-05-13T21:21:58.032Z,13.63
2018-05-13T21:24:30.498Z,13.58
2018-05-13T21:27:03.035Z,13.59
2018-05-13T21:29:35.367Z,13.67
2018-05-13T21:32:07.796Z,13.69
2018-05-13T21:34:40.265Z,13.65
2018-05-13T21:37:12.588Z,13.60
2018-05-13T21:39:44.912Z,13.54
2018-05-13T21:42:17.436Z,13.47
2018-05-13T21:44:49.792Z,13.34
2018-05-13T21:47:22.202Z,13.48
2018-05-13T21:49:54.474Z,13.47
2018-05-13T21:52:27.035Z,13.46
2018-05-13T21:54:59.551Z,13.43
2018-05-13T21:57:31.913Z,13.35
2018-05-13T22:00:04.452Z,13.29
2018-05-13T22:02:36.908Z,13.31
2018-05-13T22:05:09.392Z,13.27
2018-05-13T22:07:42.216Z,13.25
2018-05-13T22:10:14.631Z,13.23
2018-05-13T22:12:47.048Z,13.21
2018-05-13T22:15:19.343Z,13.20
2018-05-13T22:17:51.836Z,13.17
2018-05-13T22:20:24.327Z,13.16
2018-05-13T22:22:56.642Z,13.13
2018-05-13T22:25:29.072Z,13.18
2018-05-13T22:28:01.410Z,13.22
2018-05-13T22:30:33.654Z,13.14
2018-05-13T22:33:06.016Z,13.14
2018-05-13T22:35:38.428Z,13.17
2018-05-13T22:38:10.865Z,13.21
2018-05-13T22:40:43.303Z,13.19
2018-05-13T22:43:15.626Z,12.96
2018-05-13T22:45:48.075Z,13.02
2018-05-13T22:48:20.432Z,13.17
2018-05-13T22:50:52.707Z,13.17
2018-05-13T22:53:30.748Z,13.11
2018-05-13T22:56:03.157Z,13.22
2018-05-13T23:01:14.784Z,13.15
2018-05-13T23:03:47.300Z,13.19
2018-05-13T23:06:19.891Z,13.13
2018-05-13T23:08:52.501Z,13.09
2018-05-13T23:11:24.788Z,13.18
2018-05-13T23:13:57.350Z,13.07
2018-05-13T23:16:29.648Z,13.09
2018-05-13T23:19:01.998Z,12.92
2018-05-13T23:21:34.511Z,12.99
2018-05-13T23:24:07.012Z,13.06
2018-05-13T23:26:39.429Z,12.97
2018-05-13T23:29:11.847Z,12.95
2018-05-13T23:31:44.128Z,12.91
2018-05-13T23:34:16.638Z,12.86
2018-05-13T23:36:49.153Z,12.83
2018-05-13T23:39:21.741Z,12.89
2018-05-13T23:41:54.099Z,12.91
2018-05-13T23:44:26.607Z,13.01
2018-05-13T23:46:59.031Z,12.93
2018-05-13T23:49:31.516Z,12.95
2018-05-13T23:52:03.981Z,12.94
2018-05-13T23:54:36.507Z,12.93
2018-05-13T23:57:09.029Z,12.96
2018-05-13T23:59:41.424Z,12.86
